Aeroporto :
LOGIN :

Iscrizione | Disclaimer

   EN    FR    IT 

 










Sommario :    VFR   VFR Marginale   IFR   IFR Intensivo   IFR Molto Intensivo
Visibilità : 
Base nubi : 
>= 8 km
>= 3000ft
5 / 8 km
1000 / 3000 ft
1500m / 5 km
500 / 1000 ft
800 / 1500m
200 / 500 ft
< 800m
< 200 ft
Simboli :   Temporali  Nebbia  Neve Forte  Precipitazioni Forti  Vento > 20 kt
SIGMETs :   Varie  Temporali  Ghiacco  Turbolenza  Onda orograficha  Ceneri Vulcaniche







- Altitudine del aeroporto : 137 ft


LIPS - Istrana AFB Treviso

ULTIMO METAR :
  • 180755Z 13002KT CAVOK 28/20 Q1015 RMK SKC VIS MIN 9999 WIND THR26 00000KT WIND THR08 08002KT BLU

METARs OBSOLETI :
  • 180655Z 10002KT 9999 FEW100 27/20 Q1016 RMK FEW VIS MIN 9999 WIND THR26 00000KT WIND THR08 06003KT BLU
  • 180555Z 09004KT 9999 FEW100 25/21 Q1015 RMK FEW VIS MIN 9999 WIND THR26 00000KT WIND THR08 11004KT BLU

TAF TAF LIPS
Valido dal 18 a 09 ore il 18 a 18 ore UTC


180800Z 1809/1818 VRB03KT CAVOK
Nessun NOTAM noto per questo aeroporto.



MetMap, La meteo Aeronautica in un colpo d'occhio ! - Copyright ORBIFLY Dicembre 2007 - Disclaimer

ORBIFLY MET'MAP TEAM :

Programmazione e sviluppo : Alexandra Zaïnal
Concezione e sviluppo : Baudouin d'Aumeries
Co-Programmazione e sviluppo : Marc-Olivier Méhu
Supporto tecnico e logistico : Manuel Goepfert
Aiuto per la traduzione : Arnaldo La Scala

Contatto : metmap@orbifly.com




FONTI E CREDITI :

   NOAA